Time;durP1;ratioP1;P1;durP2;ratioP2;P2;SDS_P1;SDS_P2;PMS_P1;PMS_P2;Temp;Humidity;BMP_temperature;BMP_pressure;BME280_temperature;BME280_humidity;BME280_pressure;Samples;Min_cycle;Max_cycle;Signal;HPM_P1;HPM_P2
2024/01/21 00:04:14;;;;;;;29.90;14.68;;;;;;;1.35;100.00;100236.28;10254243;28;20042;-80
2024/01/21 00:09:18;;;;;;;25.50;14.65;;;;;;;1.59;100.00;100264.25;10254179;28;20059;-80
2024/01/21 00:14:19;;;;;;;27.10;15.38;;;;;;;1.63;100.00;100268.31;10255108;28;20116;-80
2024/01/21 00:19:20;;;;;;;23.30;14.35;;;;;;;1.47;100.00;100229.34;10254435;28;20047;-80
2024/01/21 00:24:21;;;;;;;23.92;15.02;;;;;;;1.74;100.00;100251.81;10253464;28;20042;-80
2024/01/21 00:29:39;;;;;;;27.35;15.00;;;;;;;1.87;100.00;100251.72;10253247;28;20054;-80
2024/01/21 00:34:40;;;;;;;26.75;16.75;;;;;;;1.77;100.00;100215.75;10254239;28;20523;-81
2024/01/21 00:39:40;;;;;;;20.10;13.25;;;;;;;1.96;100.00;100246.63;10253388;28;20047;-80
2024/01/21 00:44:41;;;;;;;26.10;13.23;;;;;;;1.99;100.00;100248.19;10253856;28;20515;-79
2024/01/21 00:49:42;;;;;;;21.88;14.35;;;;;;;1.96;100.00;100249.25;10252606;28;20130;-81
2024/01/21 00:54:43;;;;;;;25.52;14.50;;;;;;;1.83;100.00;100257.19;10252194;28;20594;-80
2024/01/21 00:59:44;;;;;;;26.23;14.18;;;;;;;1.88;100.00;100300.53;10252225;28;20083;-80
2024/01/21 01:04:45;;;;;;;20.33;13.57;;;;;;;1.77;100.00;100315.28;10252662;28;20046;-79
2024/01/21 01:09:45;;;;;;;23.63;14.77;;;;;;;1.74;100.00;100328.59;10253428;28;20554;-81
2024/01/21 01:14:46;;;;;;;25.35;15.52;;;;;;;1.71;100.00;100328.81;10252379;28;20043;-82
2024/01/21 01:19:47;;;;;;;31.65;18.90;;;;;;;1.84;100.00;100341.84;10252271;28;20549;-81
2024/01/21 01:24:47;;;;;;;30.27;18.00;;;;;;;1.80;100.00;100336.00;10251408;28;20043;-80
2024/01/21 01:29:48;;;;;;;24.48;15.60;;;;;;;2.12;100.00;100381.72;10252839;28;20497;-81
2024/01/21 01:34:49;;;;;;;28.27;15.75;;;;;;;1.93;100.00;100346.41;10251216;28;20077;-81
2024/01/21 01:39:50;;;;;;;30.92;14.30;;;;;;;2.27;100.00;100391.09;10251075;28;20145;-82
2024/01/21 01:44:51;;;;;;;21.83;12.15;;;;;;;2.65;100.00;100418.88;10251175;28;20137;-84
2024/01/21 01:49:54;;;;;;;19.73;11.05;;;;;;;2.95;100.00;100439.31;10251958;28;20074;-83
2024/01/21 01:54:54;;;;;;;24.77;13.30;;;;;;;3.11;100.00;100465.22;10251463;28;20039;-84
2024/01/21 01:59:55;;;;;;;22.40;13.65;;;;;;;3.12;100.00;100475.63;10250820;28;20043;-82
2024/01/21 02:04:59;;;;;;;12.30;7.65;;;;;;;2.97;100.00;100463.66;10257791;28;20062;-84
2024/01/21 02:10:01;;;;;;;7.17;5.00;;;;;;;2.97;100.00;100500.41;10258784;28;20081;-83
2024/01/21 02:15:03;;;;;;;6.30;4.78;;;;;;;2.84;100.00;100516.25;10259366;28;20039;-83
2024/01/21 02:20:05;;;;;;;5.63;4.00;;;;;;;2.58;100.00;100533.88;10258176;29;20047;-88
2024/01/21 02:25:09;;;;;;;5.85;4.20;;;;;;;2.30;100.00;100521.91;10257800;29;20043;-82
2024/01/21 02:30:10;;;;;;;5.55;4.13;;;;;;;2.37;100.00;100570.38;10258418;28;20071;-85
2024/01/21 02:35:11;;;;;;;5.18;4.32;;;;;;;2.27;100.00;100575.44;10258170;28;20046;-80
2024/01/21 02:40:12;;;;;;;4.70;3.90;;;;;;;2.01;100.00;100565.94;10257898;28;20047;-82
2024/01/21 02:45:12;;;;;;;4.63;3.55;;;;;;;2.12;100.00;100600.06;10257951;28;20058;-80
2024/01/21 02:50:13;;;;;;;4.68;3.45;;;;;;;2.04;100.00;100615.53;10257218;28;20086;-82
2024/01/21 02:55:14;;;;;;;4.63;3.88;;;;;;;1.98;100.00;100629.88;10255072;29;20047;-80
2024/01/21 03:00:15;;;;;;;5.40;4.00;;;;;;;1.55;100.00;100584.81;10254957;28;20043;-82
2024/01/21 03:05:17;;;;;;;5.85;4.50;;;;;;;1.85;100.00;100657.00;10240631;29;20058;-84
2024/01/21 03:10:18;;;;;;;4.95;3.67;;;;;;;1.85;100.00;100665.69;10228093;29;20150;-84
2024/01/21 03:15:19;;;;;;;5.65;4.63;;;;;;;1.57;100.00;100651.84;10256461;28;20081;-84
2024/01/21 03:20:20;;;;;;;6.70;5.03;;;;;;;1.76;100.00;100698.59;10255478;28;20039;-82
2024/01/21 03:25:20;;;;;;;6.88;5.38;;;;;;;1.40;100.00;100667.84;10255726;28;20047;-82
2024/01/21 03:30:21;;;;;;;7.18;5.45;;;;;;;1.44;100.00;100689.44;10255643;28;20039;-82
2024/01/21 03:35:22;;;;;;;6.50;4.70;;;;;;;1.57;100.00;100716.47;10255517;28;20043;-81
2024/01/21 03:40:23;;;;;;;6.95;4.90;;;;;;;1.57;100.00;100742.66;10255735;28;20047;-81
2024/01/21 03:45:23;;;;;;;7.10;4.90;;;;;;;1.26;100.00;100723.72;10256230;28;20110;-82
2024/01/21 03:50:24;;;;;;;7.00;5.32;;;;;;;1.42;100.00;100764.63;10254924;28;20055;-84
2024/01/21 03:55:26;;;;;;;5.97;4.82;;;;;;;1.37;100.00;100770.97;10254536;28;20078;-82
2024/01/21 04:00:27;;;;;;;5.35;4.03;;;;;;;0.91;100.00;100718.13;10255424;28;20058;-81
2024/01/21 04:05:27;;;;;;;5.45;3.75;;;;;;;1.21;100.00;100778.13;10255545;28;20043;-83
2024/01/21 04:10:29;;;;;;;5.80;4.07;;;;;;;1.27;100.00;100801.28;10252974;29;20035;-83
2024/01/21 04:15:30;;;;;;;4.82;3.35;;;;;;;1.25;100.00;100807.56;10253874;28;20508;-83
2024/01/21 04:20:30;;;;;;;4.55;3.28;;;;;;;1.11;100.00;100805.81;10254146;28;20035;-79
2024/01/21 04:25:31;;;;;;;4.25;2.90;;;;;;;1.12;100.00;100844.97;10252049;28;20488;-81
2024/01/21 04:30:32;;;;;;;4.18;2.97;;;;;;;0.75;100.00;100807.16;10253803;28;20046;-83
2024/01/21 04:35:33;;;;;;;3.95;2.80;;;;;;;0.76;100.00;100808.00;10255687;28;20047;-81
2024/01/21 04:40:33;;;;;;;3.50;2.72;;;;;;;1.02;100.00;100866.56;10253043;28;20039;-81
2024/01/21 04:45:34;;;;;;;3.92;2.75;;;;;;;1.08;100.00;100866.19;10254074;28;20381;-88
2024/01/21 04:50:35;;;;;;;3.45;2.38;;;;;;;0.72;100.00;100828.28;10253126;28;20049;-81
2024/01/21 04:55:35;;;;;;;3.05;1.88;;;;;;;1.02;100.00;100875.25;10252458;28;20043;-83
2024/01/21 05:00:36;;;;;;;2.80;1.45;;;;;;;0.39;100.00;100808.44;10252154;28;20046;-83
2024/01/21 05:05:37;;;;;;;2.05;1.27;;;;;;;0.94;100.00;100900.19;10253469;28;20081;-83
2024/01/21 05:10:38;;;;;;;1.88;1.25;;;;;;;0.91;100.00;100911.69;10250787;29;20477;-83
2024/01/21 05:15:39;;;;;;;2.30;1.38;;;;;;;0.67;100.00;100890.44;10250169;29;20039;-81
2024/01/21 05:20:39;;;;;;;2.60;1.17;;;;;;;0.91;100.00;100946.53;10249935;28;20058;-81
2024/01/21 05:25:40;;;;;;;1.58;1.02;;;;;;;0.89;100.00;100961.47;10251342;29;20419;-80
2024/01/21 05:30:41;;;;;;;2.72;1.10;;;;;;;0.96;100.00;100984.63;10251192;28;20050;-82
2024/01/21 05:35:42;;;;;;;2.15;0.63;;;;;;;0.99;100.00;101005.38;10251460;28;20499;-81
2024/01/21 05:40:42;;;;;;;1.70;0.90;;;;;;;0.97;100.00;101025.59;10251551;29;20039;-81
2024/01/21 05:45:44;;;;;;;3.33;1.60;;;;;;;0.62;100.00;100981.38;10251906;28;20063;-76
2024/01/21 05:50:44;;;;;;;2.10;1.02;;;;;;;0.86;100.00;101037.50;10251729;28;20047;-81
2024/01/21 05:55:45;;;;;;;0.70;0.40;;;;;;;0.86;100.00;101050.56;10250934;28;20484;-82
2024/01/21 06:00:46;;;;;;;1.33;0.70;;;;;;;0.81;100.00;101083.19;10251317;28;20039;-81
2024/01/21 06:05:47;;;;;;;3.30;0.90;;;;;;;0.67;100.00;101065.66;10250832;28;20524;-82
2024/01/21 06:10:48;;;;;;;7.05;3.33;;;;;;;0.81;100.00;101104.09;10251619;28;20039;-86
2024/01/21 06:15:48;;;;;;;3.47;1.95;;;;;;;0.73;100.00;101099.28;10248572;28;20051;-81
2024/01/21 06:20:49;;;;;;;3.00;1.50;;;;;;;0.81;100.00;101120.63;10244469;28;20324;-81
2024/01/21 06:25:50;;;;;;;2.70;1.42;;;;;;;0.81;100.00;101115.41;10244255;28;20518;-83
2024/01/21 06:30:51;;;;;;;2.88;0.95;;;;;;;0.80;100.00;101111.09;10244219;28;20043;-83
2024/01/21 06:35:51;;;;;;;1.10;0.68;;;;;;;0.79;100.00;101122.50;10244561;28;20047;-83
2024/01/21 06:40:52;;;;;;;1.35;0.70;;;;;;;0.77;100.00;101126.13;10244533;28;20058;-80
2024/01/21 06:45:53;;;;;;;2.20;0.90;;;;;;;0.85;100.00;101143.06;10245031;28;20067;-79
2024/01/21 06:50:54;;;;;;;2.45;1.10;;;;;;;0.83;100.00;101144.06;10250260;28;20087;-82
2024/01/21 06:55:55;;;;;;;1.67;0.90;;;;;;;0.86;100.00;101154.38;10257493;28;20170;-84
2024/01/21 07:00:55;;;;;;;1.38;0.55;;;;;;;0.59;100.00;101102.66;10253790;28;20031;-77
2024/01/21 07:05:56;;;;;;;1.98;0.50;;;;;;;0.74;100.00;101150.66;10250902;28;20404;-80
2024/01/21 07:10:57;;;;;;;1.75;0.63;;;;;;;0.84;100.00;101170.16;10250244;28;20042;-76
2024/01/21 07:15:57;;;;;;;3.08;1.48;;;;;;;0.86;100.00;101191.00;10251478;29;20423;-82
2024/01/21 07:20:58;;;;;;;1.90;0.75;;;;;;;0.90;100.00;101206.44;10255870;28;20039;-82
2024/01/21 07:26:01;;;;;;;2.75;0.70;;;;;;;0.85;100.00;101226.78;10256263;28;20519;-85
2024/01/21 07:31:02;;;;;;;1.75;0.80;;;;;;;0.88;100.00;101237.06;10256300;29;20043;-81
2024/01/21 07:36:03;;;;;;;1.60;0.75;;;;;;;0.79;100.00;101231.50;10256816;29;20039;-81
2024/01/21 07:41:04;;;;;;;1.35;0.57;;;;;;;0.84;100.00;101235.56;10255819;29;20067;-80
2024/01/21 07:46:05;;;;;;;3.13;1.60;;;;;;;0.76;100.00;101232.50;10256039;29;20415;-77
2024/01/21 07:51:05;;;;;;;1.92;1.00;;;;;;;0.74;100.00;101239.56;10255429;29;20073;-82
2024/01/21 07:56:06;;;;;;;2.10;0.82;;;;;;;0.27;100.00;101182.84;10255577;29;20500;-82
2024/01/21 08:01:11;;;;;;;2.42;0.80;;;;;;;0.53;100.00;101240.72;10254910;28;20550;-84
2024/01/21 08:06:12;;;;;;;3.10;1.35;;;;;;;0.45;100.00;101239.38;10254950;29;20047;-79
2024/01/21 08:11:12;;;;;;;2.63;1.38;;;;;;;0.50;100.00;101246.97;10253935;29;20499;-81
2024/01/21 08:16:13;;;;;;;1.90;0.90;;;;;;;0.59;100.00;101245.63;10254842;29;20043;-76
2024/01/21 08:21:14;;;;;;;2.60;1.50;;;;;;;0.57;100.00;101237.88;10254396;29;20529;-82
2024/01/21 08:26:16;;;;;;;2.30;1.17;;;;;;;0.36;100.00;101213.72;10252799;29;20042;-83
2024/01/21 08:31:17;;;;;;;3.08;1.60;;;;;;;0.49;100.00;101262.75;10214299;29;20058;-76
2024/01/21 08:36:18;;;;;;;7.05;2.53;;;;;;;0.47;100.00;101246.28;10214253;29;20127;-77
2024/01/21 08:41:18;;;;;;;3.15;1.52;;;;;;;0.54;100.00;101271.16;10245434;29;20392;-75
2024/01/21 08:46:19;;;;;;;2.25;1.17;;;;;;;0.16;100.00;101227.84;10252899;29;20051;-75
2024/01/21 08:51:20;;;;;;;2.30;1.23;;;;;;;0.33;100.00;101266.16;10251710;29;20058;-75
2024/01/21 08:56:23;;;;;;;2.72;1.42;;;;;;;0.43;100.00;101271.75;10251774;29;20126;-76
2024/01/21 09:01:23;;;;;;;3.40;1.30;;;;;;;0.36;100.00;101273.84;10253660;28;20408;-75
2024/01/21 09:06:24;;;;;;;2.70;1.55;;;;;;;0.43;100.00;101276.97;10252622;29;20039;-75
2024/01/21 09:11:25;;;;;;;3.22;1.50;;;;;;;0.52;100.00;101276.50;10252143;28;20508;-75
2024/01/21 09:16:26;;;;;;;3.25;1.83;;;;;;;0.55;100.00;101292.03;10251866;29;20051;-75
2024/01/21 09:21:27;;;;;;;2.55;1.65;;;;;;;0.56;100.00;101290.25;10252634;29;20081;-75
2024/01/21 09:26:28;;;;;;;4.95;2.10;;;;;;;0.63;100.00;101299.47;10252103;29;20468;-74
2024/01/21 09:31:29;;;;;;;2.80;1.70;;;;;;;0.40;100.00;101251.00;10251504;29;20039;-75
2024/01/21 09:36:30;;;;;;;3.58;1.92;;;;;;;0.69;100.00;101307.00;10251412;29;20605;-73
2024/01/21 09:41:46;;;;;;;3.95;2.08;;;;;;;0.67;100.00;101304.44;10248678;29;20047;-72
2024/01/21 09:46:58;;;;;;;3.97;2.50;;;;;;;0.39;100.00;101255.38;10250394;29;20087;-70
2024/01/21 09:52:01;;;;;;;82.13;41.95;;;;;;;0.60;100.00;101289.16;10242785;29;20467;-73
2024/01/21 09:57:02;;;;;;;30.65;17.48;;;;;;;0.79;100.00;101320.44;10248753;28;20047;-70
2024/01/21 10:02:04;;;;;;;9.50;5.53;;;;;;;0.44;100.00;101253.34;10251500;28;20053;-68
2024/01/21 10:07:04;;;;;;;18.42;12.65;;;;;;;0.87;100.00;101324.31;10232814;29;20040;-70
2024/01/21 10:12:07;;;;;;;5.13;3.08;;;;;;;0.57;100.00;101273.63;10241593;29;20039;-70
2024/01/21 10:17:07;;;;;;;4.95;3.15;;;;;;;0.98;100.00;101322.91;10251215;29;20039;-70
2024/01/21 10:22:15;;;;;;;4.03;2.88;;;;;;;0.96;100.00;101324.75;10252448;28;20039;-70
2024/01/21 10:27:16;;;;;;;4.45;2.00;;;;;;;1.00;100.00;101328.91;10258808;29;20047;-70
2024/01/21 10:32:20;;;;;;;3.42;2.40;;;;;;;0.96;100.00;101343.06;10258388;29;20046;-70
2024/01/21 10:37:22;;;;;;;7.45;4.47;;;;;;;0.74;100.00;101302.34;10257616;29;20161;-70
2024/01/21 10:42:23;;;;;;;4.90;2.65;;;;;;;0.63;100.00;101287.25;10256393;29;20090;-70
2024/01/21 10:47:24;;;;;;;3.17;2.00;;;;;;;0.91;100.00;101336.31;10256939;28;20106;-70
2024/01/21 10:52:25;;;;;;;3.30;1.85;;;;;;;0.63;100.00;101294.25;10257559;28;20130;-70
2024/01/21 10:57:26;;;;;;;3.40;1.88;;;;;;;1.06;100.00;101352.97;10256964;28;20120;-70
2024/01/21 11:02:28;;;;;;;2.60;1.27;;;;;;;1.01;100.00;101357.59;10255996;29;20091;-70
2024/01/21 11:07:30;;;;;;;3.42;1.77;;;;;;;0.59;100.00;101313.63;10257080;28;20093;-69
2024/01/21 11:12:31;;;;;;;4.05;1.38;;;;;;;1.06;100.00;101370.44;10256491;29;20042;-69
2024/01/21 11:17:32;;;;;;;2.58;1.27;;;;;;;1.02;100.00;101354.06;10256808;28;20054;-69
2024/01/21 11:22:37;;;;;;;56.50;31.50;;;;;;;1.01;100.00;101378.50;10255981;29;20086;-70
2024/01/21 11:27:37;;;;;;;104.30;53.45;;;;;;;0.94;100.00;101369.31;10255103;28;20047;-69
2024/01/21 11:32:41;;;;;;;66.10;32.60;;;;;;;1.01;100.00;101396.84;10256529;28;20046;-69
2024/01/21 11:37:45;;;;;;;50.33;28.63;;;;;;;0.97;100.00;101391.84;10254852;28;20043;-70
2024/01/21 11:42:50;;;;;;;33.20;20.83;;;;;;;0.71;100.00;101338.28;10253942;28;20059;-70
2024/01/21 11:47:50;;;;;;;10.27;7.78;;;;;;;0.99;100.00;101397.84;10255109;28;20075;-69
2024/01/21 11:52:51;;;;;;;9.18;5.18;;;;;;;0.95;100.00;101418.09;10254825;28;20039;-70
2024/01/21 11:57:53;;;;;;;4.15;2.60;;;;;;;0.82;100.00;101388.28;10255093;28;20082;-70
2024/01/21 12:02:53;;;;;;;5.63;3.75;;;;;;;0.90;100.00;101412.28;10246070;28;20058;-70
2024/01/21 12:07:55;;;;;;;81.63;37.22;;;;;;;0.56;100.00;101376.53;10253327;29;20039;-69
2024/01/21 12:12:57;;;;;;;34.03;18.83;;;;;;;0.75;100.00;101437.44;10247888;29;20259;-69
2024/01/21 12:17:57;;;;;;;53.45;31.20;;;;;;;0.43;100.00;101395.44;10250243;28;20055;-70
2024/01/21 12:22:58;;;;;;;16.65;11.27;;;;;;;0.71;100.00;101464.66;10251053;28;20412;-70
2024/01/21 12:27:59;;;;;;;5.50;3.83;;;;;;;0.74;100.00;101463.66;10253597;28;20055;-69
2024/01/21 12:33:00;;;;;;;8.63;6.18;;;;;;;0.62;100.00;101452.03;10251368;28;20039;-69
2024/01/21 12:38:00;;;;;;;4.75;2.60;;;;;;;0.47;100.00;101445.81;10252942;28;20051;-69
2024/01/21 12:43:01;;;;;;;22.65;10.07;;;;;;;0.71;100.00;101496.03;10253377;28;20059;-69
2024/01/21 12:48:03;;;;;;;5.55;2.15;;;;;;;0.70;100.00;101486.50;10252478;28;20046;-69
2024/01/21 12:53:04;;;;;;;4.50;1.40;;;;;;;0.65;100.00;101501.56;10251835;28;20047;-69
2024/01/21 12:58:04;;;;;;;5.38;1.20;;;;;;;0.70;100.00;101525.75;10245746;29;20058;-70
2024/01/21 13:03:05;;;;;;;3.78;1.40;;;;;;;0.38;100.00;101473.25;10242662;28;20035;-69
2024/01/21 13:08:08;;;;;;;5.55;2.90;;;;;;;0.40;100.00;101483.66;10235732;28;20484;-70
2024/01/21 13:13:09;;;;;;;3.28;1.73;;;;;;;0.07;100.00;101434.69;10231808;29;20046;-69
2024/01/21 13:18:10;;;;;;;12.35;4.70;;;;;;;0.62;100.00;101544.41;10230596;28;20411;-69
2024/01/21 13:23:10;;;;;;;3.75;2.00;;;;;;;0.63;100.00;101543.50;10230903;29;20036;-69
2024/01/21 13:28:16;;;;;;;4.85;2.67;;;;;;;0.65;100.00;101552.09;10231801;28;20050;-69
2024/01/21 13:33:20;;;;;;;3.70;2.10;;;;;;;0.67;100.00;101558.13;10231621;29;20031;-69
2024/01/21 13:38:29;;;;;;;5.50;3.00;;;;;;;0.63;100.00;101548.75;10236803;28;21214;-69
2024/01/21 13:43:31;;;;;;;6.53;3.05;;;;;;;0.54;100.00;101566.63;10245401;29;20070;-69
2024/01/21 13:48:32;;;;;;;7.50;3.88;;;;;;;0.44;100.00;101564.44;10247359;29;20039;-69
2024/01/21 13:53:33;;;;;;;5.68;2.88;;;;;;;0.26;100.00;101536.56;10236214;29;20075;-69
2024/01/21 13:58:34;;;;;;;15.10;6.78;;;;;;;0.36;100.00;101550.91;10233588;28;20039;-69
2024/01/21 14:03:36;;;;;;;10.52;5.57;;;;;;;0.45;100.00;101583.63;10247133;29;20071;-69
2024/01/21 14:08:37;;;;;;;9.77;3.90;;;;;;;0.38;100.00;101556.06;10245768;28;20070;-69
2024/01/21 14:13:38;;;;;;;8.55;4.03;;;;;;;0.45;100.00;101581.00;10243065;28;20070;-69
2024/01/21 14:18:39;;;;;;;5.97;2.83;;;;;;;0.33;100.00;101574.59;10236415;28;20043;-69
2024/01/21 14:23:40;;;;;;;3.55;1.77;;;;;;;0.31;100.00;101567.72;10242384;29;20448;-69
2024/01/21 14:28:42;;;;;;;7.90;3.63;;;;;;;0.29;100.00;101588.69;10248371;28;20114;-69
2024/01/21 14:33:43;;;;;;;10.05;3.85;;;;;;;0.13;100.00;101559.81;10245582;29;20047;-69
2024/01/21 14:38:43;;;;;;;4.65;2.38;;;;;;;0.21;100.00;101585.63;10256519;29;20146;-69
2024/01/21 14:43:45;;;;;;;5.82;3.53;;;;;;;-0.16;100.00;101544.63;10257952;29;20087;-69
2024/01/21 14:48:45;;;;;;;10.82;6.20;;;;;;;0.09;100.00;101586.16;10259445;28;20050;-69
2024/01/21 14:53:47;;;;;;;5.38;2.35;;;;;;;0.21;100.00;101612.59;10257015;28;20054;-69
2024/01/21 14:58:50;;;;;;;9.90;1.73;;;;;;;0.18;100.00;101617.97;10258032;28;20039;-69
2024/01/21 15:03:51;;;;;;;3.20;1.08;;;;;;;0.11;100.00;101632.19;10256763;28;20614;-69
2024/01/21 15:08:51;;;;;;;2.80;1.48;;;;;;;-0.01;100.00;101635.34;10257471;28;20051;-68
2024/01/21 15:13:52;;;;;;;2.45;1.20;;;;;;;-0.09;100.00;101633.09;10256144;29;20129;-69
2024/01/21 15:18:53;;;;;;;2.15;1.10;;;;;;;-0.23;100.00;101596.31;10256681;29;20055;-69
2024/01/21 15:23:54;;;;;;;2.33;1.10;;;;;;;-0.31;100.00;101587.94;10256324;29;20039;-70
2024/01/21 15:28:55;;;;;;;2.47;1.13;;;;;;;-0.19;100.00;101629.19;10252372;29;20043;-69
2024/01/21 15:33:56;;;;;;;2.25;0.95;;;;;;;-0.38;100.00;101599.59;10257079;29;20047;-69
2024/01/21 15:38:57;;;;;;;8.63;6.22;;;;;;;-0.10;100.00;101647.06;10256257;29;20411;-69
2024/01/21 15:43:57;;;;;;;12.18;8.65;;;;;;;-0.12;100.00;101650.66;10255055;29;20059;-69
2024/01/21 15:48:58;;;;;;;3.38;2.13;;;;;;;-0.11;100.00;101650.59;10254603;29;20389;-69
2024/01/21 15:53:59;;;;;;;3.13;1.40;;;;;;;-0.22;100.00;101651.97;10248109;29;20137;-69
2024/01/21 15:59:01;;;;;;;5.22;2.15;;;;;;;-0.27;100.00;101647.81;10229635;29;20182;-69
2024/01/21 16:04:02;;;;;;;1.88;1.00;;;;;;;-0.44;100.00;101650.31;10247566;29;20066;-70
2024/01/21 16:09:04;;;;;;;2.38;1.10;;;;;;;-0.46;100.00;101667.78;10254176;28;20041;-70
2024/01/21 16:14:05;;;;;;;1.88;1.00;;;;;;;-1.00;100.00;101583.91;10254122;29;20118;-70
2024/01/21 16:19:06;;;;;;;59.90;36.80;;;;;;;-0.51;100.00;101680.16;10246228;28;20101;-70
2024/01/21 16:24:07;;;;;;;9.82;6.93;;;;;;;-0.43;100.00;101687.69;10247794;28;20051;-71
2024/01/21 16:29:08;;;;;;;6.70;4.70;;;;;;;-0.80;100.00;101632.66;10249680;28;20411;-71
2024/01/21 16:34:08;;;;;;;5.05;1.88;;;;;;;-0.71;100.00;101645.31;10252643;28;20134;-71
2024/01/21 16:39:09;;;;;;;3.95;1.75;;;;;;;-0.52;100.00;101694.97;10253290;28;20210;-71
2024/01/21 16:44:10;;;;;;;2.58;1.30;;;;;;;-0.50;100.00;101698.38;10253362;29;20063;-71
2024/01/21 16:49:11;;;;;;;3.90;1.33;;;;;;;-0.80;100.00;101655.31;10253477;29;20380;-71
2024/01/21 16:54:12;;;;;;;2.67;1.17;;;;;;;-0.45;100.00;101719.06;10253356;29;20052;-71
2024/01/21 16:59:13;;;;;;;2.20;1.27;;;;;;;-0.55;100.00;101705.56;10253298;29;20043;-71
2024/01/21 17:04:15;;;;;;;3.53;1.58;;;;;;;-0.40;100.00;101724.97;10252852;29;20415;-71
2024/01/21 17:09:15;;;;;;;3.50;2.00;;;;;;;-0.44;100.00;101722.56;10252076;29;20557;-71
2024/01/21 17:14:20;;;;;;;3.03;1.35;;;;;;;-0.72;100.00;101687.13;10252679;28;20174;-71
2024/01/21 17:19:21;;;;;;;3.85;1.30;;;;;;;-0.70;100.00;101714.84;10252440;29;20043;-70
2024/01/21 17:24:22;;;;;;;3.22;1.17;;;;;;;-0.65;100.00;101738.16;10252113;29;20443;-69
2024/01/21 17:29:22;;;;;;;3.05;1.00;;;;;;;-0.69;100.00;101739.19;10252633;29;20122;-70
2024/01/21 17:34:23;;;;;;;2.97;1.33;;;;;;;-0.79;100.00;101730.88;10251000;28;20043;-69
2024/01/21 17:39:24;;;;;;;6.05;2.10;;;;;;;-0.89;100.00;101723.50;10251931;29;20051;-69
2024/01/21 17:44:25;;;;;;;3.45;1.40;;;;;;;-0.80;100.00;101744.84;10252125;28;20086;-69
2024/01/21 17:49:26;;;;;;;3.03;1.30;;;;;;;-0.85;100.00;101735.50;10251669;29;20039;-69
2024/01/21 17:54:27;;;;;;;2.90;1.50;;;;;;;-0.93;100.00;101721.00;10250953;29;20047;-69
2024/01/21 17:59:28;;;;;;;2.95;1.25;;;;;;;-0.93;100.00;101726.22;10250836;29;20074;-69
2024/01/21 18:04:29;;;;;;;2.40;1.13;;;;;;;-0.91;100.00;101739.19;10250488;29;20082;-69
2024/01/21 18:09:29;;;;;;;4.82;1.85;;;;;;;-0.90;100.00;101746.09;10250644;28;20044;-69
2024/01/21 18:14:30;;;;;;;3.20;1.30;;;;;;;-0.93;100.00;101741.88;10251250;29;20058;-69
2024/01/21 18:19:31;;;;;;;3.88;1.38;;;;;;;-0.98;100.00;101722.94;10250988;29;20106;-69
2024/01/21 18:24:32;;;;;;;3.63;1.67;;;;;;;-1.17;100.00;101701.09;10250938;29;20496;-69
2024/01/21 18:29:32;;;;;;;4.93;1.80;;;;;;;-1.20;100.00;101702.06;10251549;29;20483;-69
2024/01/21 18:34:34;;;;;;;2.90;1.50;;;;;;;-0.83;100.00;101773.66;10251489;29;20051;-70
2024/01/21 18:39:35;;;;;;;3.72;1.80;;;;;;;-0.95;100.00;101768.94;10250211;29;20044;-69
2024/01/21 18:44:36;;;;;;;3.85;1.80;;;;;;;-1.20;100.00;101733.38;10252596;28;20545;-69
2024/01/21 18:49:37;;;;;;;4.65;1.83;;;;;;;-0.94;100.00;101786.28;10256982;29;20050;-69
2024/01/21 18:54:39;;;;;;;3.63;1.67;;;;;;;-1.30;100.00;101731.16;10257644;28;20050;-69
2024/01/21 18:59:43;;;;;;;4.50;2.00;;;;;;;-0.88;100.00;101785.19;10256665;28;20393;-70
2024/01/21 19:04:45;;;;;;;3.90;2.00;;;;;;;-1.22;100.00;101740.38;10258119;28;20074;-69
2024/01/21 19:09:46;;;;;;;3.95;2.10;;;;;;;-0.89;100.00;101789.56;10256970;29;20464;-69
2024/01/21 19:14:47;;;;;;;5.30;2.58;;;;;;;-1.01;100.00;101783.06;10256302;29;20089;-69
2024/01/21 19:19:48;;;;;;;4.50;2.40;;;;;;;-1.15;100.00;101772.28;10256864;29;20046;-70
2024/01/21 19:24:49;;;;;;;4.90;2.60;;;;;;;-1.02;100.00;101783.94;10256625;29;20051;-70
2024/01/21 19:29:49;;;;;;;6.35;3.03;;;;;;;-1.03;100.00;101784.03;10256375;29;20048;-70
2024/01/21 19:34:52;;;;;;;5.85;2.92;;;;;;;-1.16;100.00;101781.03;10256468;29;20043;-69
2024/01/21 19:39:54;;;;;;;6.05;3.08;;;;;;;-1.14;100.00;101800.06;10254151;29;20162;-69
2024/01/21 19:44:55;;;;;;;6.35;3.42;;;;;;;-1.13;100.00;101795.72;10255007;29;20146;-69
2024/01/21 19:49:57;;;;;;;5.53;3.13;;;;;;;-1.22;100.00;101807.34;10256240;28;20134;-69
2024/01/21 19:54:58;;;;;;;4.68;2.70;;;;;;;-1.28;100.00;101803.19;10254761;28;20050;-68
2024/01/21 19:59:59;;;;;;;5.72;3.00;;;;;;;-1.32;100.00;101805.94;10254663;28;20561;-69
2024/01/21 20:05:00;;;;;;;7.85;3.55;;;;;;;-1.60;100.00;101749.63;10254586;28;20054;-69
2024/01/21 20:10:01;;;;;;;9.52;4.30;;;;;;;-1.31;100.00;101811.13;10255436;28;20053;-68
2024/01/21 20:15:02;;;;;;;9.70;4.70;;;;;;;-1.41;100.00;101796.69;10252854;29;20047;-69
2024/01/21 20:20:04;;;;;;;8.90;4.47;;;;;;;-1.48;100.00;101798.69;10254592;28;20051;-69
2024/01/21 20:25:04;;;;;;;9.05;4.55;;;;;;;-1.40;100.00;101824.50;10254252;28;20047;-68
2024/01/21 20:30:06;;;;;;;10.63;5.28;;;;;;;-1.67;100.00;101774.22;10254262;28;20050;-69
2024/01/21 20:35:08;;;;;;;10.95;5.18;;;;;;;-1.80;100.00;101758.13;10253081;28;20062;-69
2024/01/21 20:40:09;;;;;;;11.15;5.47;;;;;;;-1.39;100.00;101824.41;10251897;28;20095;-69
2024/01/21 20:45:10;;;;;;;10.07;5.53;;;;;;;-1.36;100.00;101836.50;10241062;29;20071;-69
2024/01/21 20:50:10;;;;;;;10.32;5.78;;;;;;;-1.37;100.00;101829.59;10253292;28;20058;-69
2024/01/21 20:55:11;;;;;;;9.32;5.03;;;;;;;-1.38;100.00;101817.44;10251783;28;20514;-68
2024/01/21 21:00:12;;;;;;;11.75;6.22;;;;;;;-1.26;100.00;101840.47;10251516;29;20050;-69
2024/01/21 21:05:13;;;;;;;12.23;5.40;;;;;;;-1.45;100.00;101814.22;10251170;29;20079;-69
2024/01/21 21:10:14;;;;;;;10.45;5.28;;;;;;;-1.50;100.00;101802.25;10251392;28;20570;-68
2024/01/21 21:15:15;;;;;;;11.48;5.70;;;;;;;-1.64;100.00;101774.94;10252918;28;20035;-69
2024/01/21 21:20:16;;;;;;;10.05;5.60;;;;;;;-1.24;100.00;101854.31;10252491;29;20039;-69
2024/01/21 21:25:16;;;;;;;8.85;5.32;;;;;;;-1.43;100.00;101815.03;10252684;29;20051;-69
2024/01/21 21:30:17;;;;;;;10.27;5.50;;;;;;;-1.26;100.00;101852.66;10252467;29;20399;-69
2024/01/21 21:35:18;;;;;;;12.00;5.93;;;;;;;-1.55;100.00;101814.63;10252501;29;20519;-68
2024/01/21 21:40:19;;;;;;;13.00;6.10;;;;;;;-1.35;100.00;101856.44;10251518;29;20039;-69
2024/01/21 21:45:21;;;;;;;11.73;6.55;;;;;;;-1.34;100.00;101854.72;10252311;29;20070;-69
2024/01/21 21:50:22;;;;;;;12.30;6.82;;;;;;;-1.43;100.00;101867.16;10251504;28;20385;-69
2024/01/21 21:55:24;;;;;;;12.05;6.35;;;;;;;-1.46;100.00;101867.25;10250370;29;20040;-69
2024/01/21 22:00:25;;;;;;;12.18;6.60;;;;;;;-1.47;100.00;101870.75;10251417;28;20081;-69
2024/01/21 22:05:26;;;;;;;10.48;5.63;;;;;;;-1.85;100.00;101817.38;10252030;29;20067;-69
2024/01/21 22:10:26;;;;;;;11.15;6.22;;;;;;;-1.77;100.00;101830.13;10249621;29;20119;-69
2024/01/21 22:15:27;;;;;;;12.20;6.57;;;;;;;-1.58;100.00;101867.69;10250544;28;20043;-68
2024/01/21 22:20:28;;;;;;;12.85;6.97;;;;;;;-1.93;100.00;101828.03;10255929;28;20058;-68
2024/01/21 22:25:29;;;;;;;12.95;7.07;;;;;;;-1.65;100.00;101876.59;10258693;29;20102;-69
2024/01/21 22:30:30;;;;;;;9.85;5.90;;;;;;;-1.66;100.00;101864.47;10258694;28;20047;-69
2024/01/21 22:35:31;;;;;;;10.65;6.60;;;;;;;-1.58;100.00;101880.72;10258063;29;20043;-69
2024/01/21 22:40:31;;;;;;;9.55;6.57;;;;;;;-1.61;100.00;101888.66;10258885;29;20384;-68
2024/01/21 22:45:34;;;;;;;8.82;5.25;;;;;;;-2.07;100.00;101812.88;10258736;29;20118;-68
2024/01/21 22:50:34;;;;;;;13.52;7.20;;;;;;;-1.90;100.00;101890.44;10258450;29;20444;-68
2024/01/21 22:55:35;;;;;;;12.13;7.40;;;;;;;-1.91;100.00;101886.16;10257858;29;20043;-69